• Join FlightAware (Why Join?)
  • Login
  • US Flag 
03:17AM EDT


 

Airport Tracker/Info


-or-


 

Live Flight TrackerFlight Track Log ✈ EJA996 ✈ 14-May-2013 ✈ KBOS - KAPA

Flight Track Log - Related Links

Times and Time Zones

All times are in EDT time to prevent confusion due to time zone crossing. See the EJA996 flight status page for this flight to view local times or setup timezone preferences in your user account.

Time Position Orientation Groundspeed Altitude Reporting Facility
EDT Latitude Longitude Course Direction KTS MPH feet Rate Location/Type
07:08PM 42.3667 -71.0167 312° West 154 177 900  Level KA90
07:09PM 42.4000 -71.0667 312° West 205 236 3,800 3,660 Climbing KA90
07:11PM 42.5344 -71.1186 344° North 275 316 11,500 3,240 Climbing Boston Center
07:12PM 42.6100 -71.1706 333° Northwest 306 352 13,600 2,580 Climbing Boston Center
07:13PM 42.7025 -71.2308 334° Northwest 332 382 16,700 2,520 Climbing Boston Center
07:14PM 42.7658 -71.3117 317° Northwest 345 397 18,700 2,220 Climbing Boston Center
07:15PM 42.7797 -71.4642 277° West 345 397 21,200 2,220 Climbing Boston Center
07:16PM 42.7892 -71.6083 275° West 368 423 23,200 2,100 Climbing Boston Center
07:17PM 42.8047 -71.7525 278° West 379 436 25,500 1,860 Climbing Boston Center
07:18PM 42.8181 -71.9050 277° West 391 450 27,000 1,320 Climbing Boston Center
07:19PM 42.8311 -72.0325 278° West 410 472 28,200 1,500 Climbing Boston Center
07:20PM 42.8483 -72.2278 277° West 427 491 30,000 1,980 Climbing Boston Center
07:21PM 42.8736 -72.3892 282° West 433 498 32,200 1,560 Climbing Boston Center
07:22PM 42.8881 -72.5478 277° West 433 498 33,200 1,620 Climbing Boston Center
07:23PM 42.8939 -72.7064 273° West 433 498 35,500 1,500 Climbing Boston Center
07:24PM 42.9081 -72.8708 277° West 428 493 36,200 900 Climbing Boston Center
07:25PM 42.9242 -73.0186 279° West 428 493 37,300 900 Climbing Boston Center
07:26PM 42.9378 -73.1803 277° West 433 498 38,000 300 Climbing Boston Center
07:27PM 42.9489 -73.3647 275° West 443 510 38,000  Level Boston Center
07:28PM 42.9642 -73.5381 277° West 449 517 38,000  Level Boston Center
07:29PM 42.9789 -73.7172 276° West 462 532 38,000  Level Boston Center
07:30PM 42.9933 -73.8933 276° West 473 544 38,000  Level Boston Center
07:31PM 43.0097 -74.0700 277° West 473 544 38,000  Level Boston Center
07:32PM 43.0222 -74.2122 277° West 478 550 38,000  Level Boston Center
07:33PM 43.0375 -74.4286 276° West 483 556 38,000  Level Boston Center
07:34PM 43.0514 -74.5853 277° West 483 556 38,000  Level Boston Center
07:35PM 43.0625 -74.7592 275° West 473 544 38,000  Level Boston Center
07:36PM 43.0769 -74.9672 275° West 468 539 38,000  Level Boston Center
07:37PM 43.0894 -75.1411 276° West 463 533 38,000  Level Boston Center
07:38PM 43.1019 -75.3153 276° West 463 533 38,000  Level Boston Center
07:39PM 43.1119 -75.4892 275° West 463 533 38,000  Level Boston Center
07:40PM 43.1219 -75.6575 275° West 463 533 38,000  Level Boston Center
07:41PM 43.1317 -75.8261 275° West 458 527 38,000  Level Boston Center
07:43PM 43.1500 -76.1333 275° West 450 518 38,000  Level Toronto Center
07:43PM 43.1519 -76.2372 272° West 453 521 38,000  Level Cleveland Center
07:44PM 43.1603 -76.4075 274° West 458 527 38,000  Level Cleveland Center
07:45PM 43.1683 -76.5750 274° West 458 527 38,000  Level Cleveland Center
07:46PM 43.1764 -76.7567 274° West 453 521 38,000  Level Cleveland Center
07:47PM 43.1839 -76.9214 274° West 448 516 38,000  Level Cleveland Center
07:48PM 43.1908 -77.0778 274° West 443 510 38,000  Level Cleveland Center
07:49PM 43.1978 -77.2453 273° West 443 510 38,000  Level Cleveland Center
07:50PM 43.2047 -77.4158 273° West 443 510 38,000  Level Cleveland Center
07:51PM 43.2136 -77.5894 274° West 443 510 38,000  Level Cleveland Center
07:52PM 43.2178 -77.7600 272° West 443 510 38,000  Level Cleveland Center
07:53PM 43.2239 -77.9308 273° West 443 510 38,000  Level Cleveland Center
07:54PM 43.2300 -78.1072 273° West 457 526 38,000 480 Level Cleveland Center
07:55PM 43.2356 -78.2808 273° West 457 526 39,000 900 Climbing Cleveland Center
07:56PM 43.2431 -78.4514 274° West 457 526 39,800 480 Climbing Cleveland Center
07:57PM 43.2458 -78.6194 271° West 457 526 40,000 60 Climbing Cleveland Center
07:58PM 43.2531 -78.7961 273° West 457 526 40,000  Level Cleveland Center
07:59PM 43.2556 -78.9728 271° West 457 526 40,000  Level Cleveland Center
08:00PM 43.2500 -79.0667 265° West 460 529 40,000  Level Toronto Center
08:01PM 43.2500 -79.2167 270° West 460 529 40,000  Level Toronto Center
08:02PM 43.2500 -79.4000 270° West 470 541 40,000  Level Toronto Center
08:03PM 43.2667 -79.5833 277° West 470 541 40,000  Level Toronto Center
08:04PM 43.2667 -79.7500 270° West 470 541 40,000  Level Toronto Center
08:05PM 43.2667 -79.9500 270° West 470 541 40,000  Level Toronto Center
08:06PM 43.2667 -80.1167 270° West 470 541 40,000  Level Toronto Center
08:07PM 43.2667 -80.3000 270° West 470 541 40,000  Level Toronto Center
08:08PM 43.2833 -80.4500 279° West 470 541 40,000  Level Toronto Center
08:09PM 43.2833 -80.6333 270° West 460 529 40,000  Level Toronto Center
08:10PM 43.2667 -80.8167 263° West 460 529 40,000  Level Toronto Center
08:11PM 43.2667 -81.0000 270° West 450 518 40,000  Level Toronto Center
08:12PM 43.2667 -81.1667 270° West 450 518 40,000  Level Toronto Center
08:13PM 43.2833 -81.3500 277° West 450 518 40,000  Level Toronto Center
08:14PM 43.2833 -81.5167 270° West 450 518 40,000  Level Toronto Center
08:15PM 43.2833 -81.6667 270° West 440 506 40,000  Level Toronto Center
08:16PM 43.2833 -81.8333 270° West 440 506 40,000  Level Toronto Center
08:17PM 43.2667 -82.0167 263° West 440 506 40,000  Level Toronto Center
08:18PM 43.2833 -82.1833 278° West 440 506 40,000  Level Toronto Center
08:19PM 43.2833 -82.3667 270° West 440 506 40,000  Level Toronto Center
08:20PM 43.2833 -82.5167 270° West 440 506 40,000  Level Toronto Center
08:21PM 43.2667 -82.7000 263° West 440 506 40,000  Level Toronto Center
08:21PM 43.2903 -82.7422 308° West 443 510 40,000  Level Cleveland Center
08:22PM 43.2892 -82.9106 270° West 443 510 40,000  Level Cleveland Center
08:23PM 43.2878 -83.0758 269° West 443 510 40,000  Level Cleveland Center
08:24PM 43.2861 -83.2442 269° West 443 510 40,000  Level Cleveland Center
08:25PM 43.2842 -83.4150 269° West 443 510 40,000  Level Cleveland Center
08:26PM 43.2817 -83.5919 269° West 449 517 40,000  Level Cleveland Center
08:27PM 43.2772 -83.7569 268° West 449 517 40,000  Level Cleveland Center
08:28PM 43.2747 -83.9281 269° West 449 517 40,000  Level Cleveland Center
08:29PM 43.2711 -84.1133 269° West 449 517 40,000  Level Cleveland Center
08:30PM 43.2700 -84.2842 270° West 449 517 40,000  Level Cleveland Center
08:32PM 43.2625 -84.5778 268° West 444 511 40,000  Level Chicago Center
08:33PM 43.2575 -84.7450 268° West 442 509 40,000  Level Chicago Center
08:34PM 43.2536 -84.9117 268° West 439 505 40,000  Level Chicago Center
08:35PM 43.2497 -85.0800 268° West 442 509 40,000  Level Chicago Center
08:36PM 43.2450 -85.2486 268° West 445 512 40,000  Level Chicago Center
08:37PM 43.2397 -85.4172 268° West 445 512 40,000  Level Chicago Center
08:38PM 43.2342 -85.6197 268° West 446 513 40,000  Level Chicago Center
08:39PM 43.2283 -85.7886 267° West 449 517 40,000  Level Chicago Center
08:40PM 43.2275 -85.9561 270° West 449 517 40,000  Level Chicago Center
08:41PM 43.2283 -86.1247 270° West 451 519 40,000  Level Chicago Center
08:42PM 43.2261 -86.3264 269° West 445 512 40,000  Level Chicago Center
08:43PM 43.2244 -86.4975 269° West 453 521 40,000  Level Chicago Center
08:44PM 43.2228 -86.6656 269° West 446 513 40,000  Level Chicago Center
08:45PM 43.2208 -86.8356 269° West 448 516 40,000  Level Chicago Center
08:46PM 43.2189 -87.0036 269° West 445 512 40,000  Level Chicago Center
08:47PM 43.2164 -87.2075 269° West 446 513 40,000  Level Chicago Center
08:48PM 43.2125 -87.3778 268° West 447 514 40,000  Level Chicago Center
08:49PM 43.2100 -87.5622 269° West 451 519 40,000  Level Chicago Center
08:50PM 43.2072 -87.7347 269° West 451 519 40,000  Level Chicago Center
08:51PM 43.2033 -87.9078 268° West 455 524 40,000  Level Chicago Center
08:52PM 43.1992 -88.0811 268° West 454 522 40,000  Level Chicago Center
08:54PM 43.1947 -88.2539 268° West 451 519 40,000  Level Chicago Center
08:55PM 43.1906 -88.4283 268° West 453 521 40,000  Level Chicago Center
08:56PM 43.1853 -88.6006 268° West 448 516 40,000  Level Chicago Center
08:57PM 43.1811 -88.7722 268° West 447 514 40,000 180 Level Chicago Center
08:58PM 43.1764 -88.9728 268° West 448 516 40,400 660 Climbing Chicago Center
08:59PM 43.1708 -89.1414 267° West 444 511 41,400 960 Climbing Chicago Center
09:00PM 43.1661 -89.3089 268° West 442 509 42,500 720 Climbing Chicago Center
09:01PM 43.1611 -89.4711 268° West 428 493 43,000 240 Climbing Chicago Center
09:02PM 43.1536 -89.6375 267° West 437 503 43,000  Level Chicago Center
09:03PM 43.1478 -89.8033 267° West 432 497 43,000  Level Chicago Center
09:04PM 43.1406 -89.9928 267° West 428 493 43,000  Level Chicago Center
09:05PM 43.1328 -90.1586 266° West 433 498 43,000  Level Chicago Center
09:06PM 43.1267 -90.3328 267° West 436 502 43,000  Level Chicago Center
09:07PM 43.1278 -90.4981 271° West 440 506 43,000  Level Chicago Center
09:08PM 43.1353 -90.6614 274° West 435 501 43,000  Level Chicago Center
09:09PM 43.1378 -90.8286 271° West 453 521 43,000  Level Chicago Center
09:10PM 43.1092 -90.9914 257° West 449 517 43,000  Level Chicago Center
09:11PM 43.0889 -91.1922 262° West 451 519 43,000  Level Chicago Center
09:12PM 43.0808 -91.3592 266° West 448 516 43,000  Level Chicago Center
09:13PM 43.0722 -91.5278 266° West 453 521 43,000  Level Chicago Center
09:14PM 43.0631 -91.6950 266° West 451 519 43,000  Level Chicago Center
09:15PM 43.0522 -91.8958 266° West 453 521 43,000  Level Minneapolis Center
09:16PM 43.0425 -92.0622 265° West 449 517 43,000  Level Minneapolis Center
09:17PM 43.0319 -92.2575 266° West 438 504 43,000  Level Minneapolis Center
09:18PM 43.0228 -92.4225 266° West 442 509 43,000  Level Minneapolis Center
09:19PM 43.0108 -92.5889 264° West 444 511 43,000  Level Minneapolis Center
09:20PM 43.0033 -92.7214 266° West 444 511 43,000  Level Minneapolis Center
09:21PM 42.9900 -92.9208 265° West 444 511 43,000  Level Minneapolis Center
09:22PM 42.9775 -93.1236 265° West 450 518 43,000  Level Minneapolis Center
09:24PM 42.9664 -93.2919 265° West 452 520 43,000  Level Minneapolis Center
09:25PM 42.9544 -93.4614 265° West 453 521 43,000  Level Minneapolis Center
09:26PM 42.9447 -93.6281 266° West 448 516 43,000  Level Minneapolis Center
09:27PM 42.9328 -93.7950 264° West 449 517 43,000  Level Minneapolis Center
09:28PM 42.9203 -93.9636 264° West 450 518 43,000  Level Minneapolis Center
09:29PM 42.9042 -94.1642 264° West 450 518 43,000  Level Minneapolis Center
09:30PM 42.8914 -94.3303 264° West 447 514 43,000  Level Minneapolis Center
09:31PM 42.8792 -94.4978 264° West 449 517 43,000  Level Minneapolis Center
09:32PM 42.8644 -94.6731 264° West 446 513 43,000  Level Minneapolis Center
09:33PM 42.8508 -94.8442 264° West 452 520 43,000  Level Minneapolis Center
09:34PM 42.8367 -95.0147 264° West 453 521 43,000  Level Minneapolis Center
09:35PM 42.8225 -95.1844 264° West 451 519 43,000  Level Minneapolis Center
09:36PM 42.8050 -95.3900 263° West 454 522 43,000  Level Minneapolis Center
09:37PM 42.7897 -95.5622 263° West 457 526 43,000  Level Minneapolis Center
09:38PM 42.7742 -95.7356 263° West 460 529 43,000  Level Minneapolis Center
09:39PM 42.7589 -95.9067 263° West 457 526 43,000  Level Minneapolis Center
09:40PM 42.7433 -96.0792 263° West 457 526 43,000  Level Minneapolis Center
09:41PM 42.7267 -96.2497 262° West 457 526 43,000  Level Minneapolis Center
09:42PM 42.7108 -96.4219 263° West 458 527 43,000  Level Minneapolis Center
09:43PM 42.6933 -96.6072 263° West 461 531 43,000  Level Minneapolis Center
09:44PM 42.6758 -96.7786 262° West 460 529 43,000  Level Minneapolis Center
09:45PM 42.6586 -96.9539 262° West 466 536 43,000  Level Minneapolis Center
09:46PM 42.6417 -97.1253 262° West 463 533 43,000  Level Minneapolis Center
09:47PM 42.6233 -97.2975 262° West 463 533 43,000  Level Minneapolis Center
09:48PM 42.6053 -97.4694 262° West 463 533 43,000  Level Minneapolis Center
09:49PM 42.5839 -97.6769 262° West 464 534 43,000  Level Minneapolis Center
09:50PM 42.5636 -97.8600 262° West 465 535 43,000  Level Minneapolis Center
09:52PM 42.5408 -98.0694 262° West 468 539 43,000  Level Minneapolis Center
09:53PM 42.5175 -98.2767 261° West 467 537 43,000  Level Minneapolis Center
09:54PM 42.4975 -98.4506 261° West 468 539 43,000  Level Minneapolis Center
09:55PM 42.4775 -98.6247 261° West 469 540 43,000  Level Minneapolis Center
09:56PM 42.4250 -98.7831 246° West 467 537 43,000  Level Minneapolis Center
09:57PM 42.3603 -98.9364 240° Southwest 469 540 43,000  Level Minneapolis Center
09:58PM 42.2986 -99.0914 242° Southwest 470 541 43,000  Level Minneapolis Center
09:59PM 42.2344 -99.2464 241° Southwest 474 545 43,000  Level Minneapolis Center
10:00PM 42.1581 -99.4322 241° Southwest 473 544 43,000  Level Minneapolis Center
10:00PM 42.1450 -99.4633 240° Southwest 473 544 43,000  Level Denver Center
10:01PM 42.0811 -99.6175 241° Southwest 474 545 43,000  Level Denver Center
10:02PM 42.0106 -99.7875 241° Southwest 471 542 43,000  Level Denver Center
10:03PM 41.9494 -99.9369 241° Southwest 475 547 43,000  Level Denver Center
10:04PM 41.8861 -100.0839 240° Southwest 476 548 43,000  Level Denver Center
10:05PM 41.8136 -100.2583 241° Southwest 480 552 43,000  Level Denver Center
10:06PM 41.7506 -100.4067 240° Southwest 479 551 43,000  Level Denver Center
10:07PM 41.6769 -100.5811 241° Southwest 482 555 43,000  Level Denver Center
10:08PM 41.6125 -100.7297 240° Southwest 485 558 43,000  Level Denver Center
10:09PM 41.5375 -100.9039 240° Southwest 487 560 43,000  Level Denver Center
10:10PM 41.4728 -101.0525 240° Southwest 487 560 43,000 -420 Level Denver Center
10:11PM 41.4083 -101.2011 240° Southwest 486 559 42,200 -1,200 Descending Denver Center
10:12PM 41.3336 -101.3731 240° Southwest 484 557 40,600 -1,560 Descending Denver Center
10:13PM 41.2694 -101.5175 239° Southwest 477 549 39,100 -1,620 Descending Denver Center
10:14PM 41.1944 -101.6872 240° Southwest 477 549 37,400 -1,560 Descending Denver Center
10:15PM 41.1289 -101.8350 240° Southwest 485 558 36,000 -1,320 Descending Denver Center
10:16PM 41.0725 -101.9592 239° Southwest 490 564 34,700 -1,020 Descending Denver Center
10:17PM 40.9822 -102.1619 240° Southwest 503 579 34,000 -360 Descending Denver Center
10:18PM 40.9131 -102.3167 239° Southwest 511 588 34,000  Level Denver Center
10:20PM 40.8319 -102.4950 239° Southwest 509 586 34,000  Level Denver Center
10:21PM 40.7508 -102.6728 239° Southwest 506 582 34,000  Level Denver Center
10:22PM 40.6692 -102.8497 239° Southwest 507 583 34,000  Level Denver Center
10:23PM 40.5989 -102.9997 238° Southwest 504 580 34,000  Level Denver Center
10:24PM 40.5408 -103.1253 239° Southwest 504 580 34,000 -1,380 Level Denver Center
10:25PM 40.4492 -103.3200 238° Southwest 491 565 31,200 -2,640 Descending Denver Center
10:26PM 40.3786 -103.4722 239° Southwest 478 550 28,600 -2,460 Descending Denver Center
10:27PM 40.3156 -103.6056 238° Southwest 452 520 26,300 -2,400 Descending Denver Center
10:28PM 40.2464 -103.7539 239° Southwest 442 509 23,700 -2,340 Descending Denver Center
10:29PM 40.1931 -103.8678 239° Southwest 363 418 21,600 -2,040 Descending Denver Center
10:30PM 40.1389 -103.9831 238° Southwest 349 402 19,600 -1,860 Descending Denver Center
10:31PM 40.0897 -104.0928 240° Southwest 348 400 17,800 -1,320 Descending Denver Center
10:32PM 40.0403 -104.1983 239° Southwest 343 395 17,000 -420 Descending Denver Center
10:33PM 39.9914 -104.3036 239° Southwest 343 395 17,000 -1,020 Level Denver Center
10:34PM 39.9389 -104.4164 239° Southwest 339 390 15,000 -1,800 Descending Denver Center
10:34PM 39.9167 -104.4500 229° Southwest 338 389 14,500 -1,320 Descending Denver TRACON
10:35PM 39.8667 -104.5500 237° Southwest 329 379 13,200 -1,260 Descending Denver TRACON
10:36PM 39.8458 -104.6039 243° Southwest 329 379 12,500 -1,560 Descending Denver Center
10:37PM 39.7922 -104.7111 237° Southwest 305 351 10,600 -1,500 Descending Denver Center
10:38PM 39.7539 -104.7989 240° Southwest 281 323 9,500 -1,380 Descending Denver Center
10:39PM 39.7000 -104.8536 218° Southwest 239 275 7,800 -1,200 Descending Denver Center
10:40PM 39.6467 -104.8536 180° South 196 226 7,100 -780 Descending Denver Center
10:41PM 39.6058 -104.8528 179° South 154 177 6,300 -600 Descending Denver Center
10:42PM 39.5625 -104.8506 178° South 148 170 5,900 -420 Descending Denver Center
10:44PM 39.5667 -104.8333 174° South  Level FlightAware Approximate
10:51PM 39.5701 -104.8493 174° South  Level Estimated